Latest METARs, TAFs and NOTAMs for ETSI


---------------------------------------------------------------------------
	(OBSERVATIONS)
ETSI 270720Z 14003KT 6000 MIFG FEW140 M03/M04 Q1010 WHT WHT TEMPO
    YLO=
ETSI 270620Z 00000KT 6000 MIFG FEW140 M05/M05 Q1010 WHT WHT TEMPO
    YLO=
ETSI 270520Z 07002KT 6000 MIFG M04/M05 Q1010 WHT WHT TEMPO YLO=
---------------------------------------------------------------------------
	(FC)
TAF ETSI 270515Z 2706/2715 08002KT 5000 BR SCT140 SCT200
     TEMPO 2706/2708 VRB01KT 2000 MIFG FEW140
     BECMG 2708/2710 12003KT 9999 NSW SCT120 BKN200
     BECMG 2711/2713 22005KT 9999 NSW SCT060 BKN090=
---------------------------------------------------------------------------
	(TERMINAL AREA FORECAST)
ETSI 270515Z 2706/2715 08002KT 5000 BR   SCT140 SCT200
    TEMPO  2706/2708 VRB01KT 2000 MIFG FEW140
    BECMG  2708/2710 12003KT 9999 NSW  SCT120 BKN200
    BECMG  2711/2713 22005KT 9999 NSW  SCT060 BKN090=
---------------------------------------------------------------------------
	(NOTAMS)


ETSI P1122/15 AD ETSI: RWY25R/O7L VFR ONLY. 16 FEB 17:00 2015
    UNTIL 27 MAR 13:00 2015. CREATED: 13 FEB 09:27 2015

ETSI P1331/15 AD ETSI: AERODROME CLOSED EXCEPT CIVIL AIR TRAFFIC
    WITH PPR. 02 MAR 08:00 2015 UNTIL 02 MAR 16:00 2015. CREATED:
    24 FEB 08:04 2015

ETSI P8108/14 AD ETSI: LIMITED RADAR COVERAGE BELOW 5000FT MSL
    DETAILED INFORMATION BY INGO RADAR. 11 DEC 11:40 2014 UNTIL
    27 FEB 13:00 2015. CREATED: 11 DEC 11:46 2014

ETSI P8109/14 AD ETSI: NO SRA POSSIBLE. 11 DEC 11:42 2014 UNTIL
    27 FEB 13:00 2015. CREATED: 11 DEC 11:48 2014

ETSI P8110/14 AD ETSI: PAR RWY25R/07L OUT OF SERVICE. 11 DEC
    11:43 2014 UNTIL 27 FEB 13:00 2015. CREATED: 11 DEC 11:49
    2014

ETSI P8111/14 AD ETSI: PAR RWY25L/07R OUT OF SERVICE. 11 DEC
    11:45 2014 UNTIL 27 FEB 13:00 2015. CREATED: 11 DEC 11:50
    2014

ETSI P8112/14 AD ETSI: TACAN APCH RWY07R SUSPENDED. 11 DEC 11:49
    2014 UNTIL 27 FEB 13:00 2015. CREATED: 11 DEC 11:52 2014

---------------------------------------------------------------------------